Fox Island, Washington
Current Conditions -  °F | °C
As of 5:53 PM on Sunday 25 Jan 2015 (Local Time) from KTIW Reporting Station
Clear Clear  
Wind Chill: 50°   Ceiling: Unl
Heat Index: 50°   Visibility: 10mi
Dew Point: 47°   Wind: 3mph
Humidity: 89%   Direction: 340°NNW
Pressure: 30.05"   Gusts: NA
Location:  47.25°N, 122.63°W
Report Text: KTIW 260153Z 34003KT 10SM CLR 10/08 A3005 RMK AO2 SLP175 T01000083
Loading
Personal Weather Stations






























Interactive Weather Map New forecast layout! Learn more

10-Day Weather Forecast

Advertisements
Track Severe Weather on mobile